Deauville-Saint-Gatien Airport

Airport
ICAO code: 
LFRG
IATA Code: 
DOL
Summary
ICAO Region: 
EUR
Territory: 
Location: 
, Basse-Normandie
Serving: 
Deauville
Elevation: 
479 ft
Coordinates: 
Aerial View: 
49° 21' 55.22" N, 0° 9' 15.502" E
Metar
Observation
LFRG 290600Z AUTO 32003KT 9999 FEW033 SCT047 02/M00 Q1012 TEMPO 3000 BR
Station
ST GATIEN
Date/Time
2021-11-29 06:00:00
Wind direction
320°
Wind speed
03 kts
Lowest cloud amount
few clouds
Temperature
2°C
Dew point
-0°C
Humidity
86%
QNH
1012 hPa
Weather condition
n/a

Runways

Designator Length Width Surface Rops
12/30 2550 45 ASP Yes/Yes
Airport map: 
Aerial View: 

Accidents and Serious Incidents at or in the vicinity of LFRG

SKYbrary Partners:

Safety knowledge contributed by: